• Join FlightAware (Why Join?)
  • Login
  • US Flag 
Gobble Gobble! 
06:48AM EST


 

Airport Tracker/Info


-or-


 

Live Flight TrackerFlight Track Log ✈ EJA922 ✈ 01-May-2014 ✈ KBUR - KOAK

Flight Track Log - Related Links

Times and Time Zones

All times are in EDT time to prevent confusion due to time zone crossing. See the EJA922 flight status page for this flight to view local times or setup timezone preferences in your user account.

Time Position Orientation Groundspeed Altitude Reporting Facility
EDT Latitude Longitude Course Direction KTS MPH feet Rate Location/Type
02:06AM 34.1472 -118.4144 238° Southwest 212 244 5,500  Level Los Angeles Center
02:07AM 34.1931 -118.4569 323° Northwest 215 247 8,100 2,580 Climbing Los Angeles Center
02:08AM 34.2589 -118.5000 332° Northwest 264 304 10,800 2,580 Climbing Los Angeles Center
02:09AM 34.3336 -118.5492 331° Northwest 303 349 13,400 2,580 Climbing Los Angeles Center
02:10AM 34.4183 -118.6031 332° Northwest 341 392 16,100 2,580 Climbing Los Angeles Center
02:11AM 34.5050 -118.6622 331° Northwest 356 410 18,700 2,280 Climbing Los Angeles Center
02:12AM 34.5972 -118.7225 332° Northwest 376 433 20,800 2,160 Climbing Los Angeles Center
02:13AM 34.6911 -118.7858 331° Northwest 385 443 23,100 2,280 Climbing Los Angeles Center
02:14AM 34.7883 -118.8517 331° Northwest 394 453 25,400 2,400 Climbing Los Angeles Center
02:15AM 34.8972 -118.9514 323° Northwest 404 465 28,000 1,260 Climbing Los Angeles Center
02:16AM 34.9872 -119.0397 321° Northwest 432 497 28,000  Level Los Angeles Center
02:17AM 35.0917 -119.1431 321° Northwest 471 542 28,000  Level Los Angeles Center
02:18AM 35.2019 -119.2489 322° Northwest 500 575 28,000  Level Los Angeles Center
02:19AM 35.3097 -119.3547 321° Northwest 501 577 28,000  Level Los Angeles Center
02:20AM 35.4178 -119.4631 321° Northwest 502 578 28,000  Level Los Angeles Center
02:21AM 35.5264 -119.5703 321° Northwest 503 579 28,000  Level Los Angeles Center
02:22AM 35.6333 -119.6772 321° Northwest 504 580 28,000  Level Oakland Center
02:23AM 35.7422 -119.7861 321° Northwest 505 581 28,000  Level Oakland Center
02:24AM 35.8508 -119.8958 321° Northwest 508 585 28,000  Level Oakland Center
02:25AM 35.9594 -120.0053 321° Northwest 508 585 28,000  Level Oakland Center
02:26AM 36.0681 -120.1144 321° Northwest 508 585 28,000  Level Oakland Center
02:27AM 36.1775 -120.2264 320° Northwest 509 586 28,000  Level Oakland Center
02:28AM 36.2872 -120.3378 321° Northwest 510 587 28,000  Level Oakland Center
02:29AM 36.3961 -120.4489 321° Northwest 510 587 28,000 -60 Level Oakland Center
02:30AM 36.5053 -120.5633 320° Northwest 512 589 27,900 -780 Descending Oakland Center
02:31AM 36.6108 -120.6722 320° Northwest 497 572 26,500 -1,980 Descending Oakland Center
02:32AM 36.7125 -120.7753 321° Northwest 475 547 24,000 -2,580 Descending Oakland Center
02:33AM 36.8044 -120.8819 317° Northwest 458 527 21,400 -2,040 Descending Oakland Center
02:34AM 36.8953 -120.9850 318° Northwest 448 516 20,000 -1,620 Descending Oakland Center
02:35AM 36.9822 -121.0881 317° Northwest 436 502 18,200 -2,040 Descending Oakland Center
02:36AM 37.0664 -121.1839 318° Northwest 412 474 16,000 -2,040 Descending Oakland Center
02:37AM 37.1478 -121.2786 317° Northwest 409 471 14,100 -1,860 Descending Oakland Center
02:38AM 37.2153 -121.3564 317° Northwest 341 392 12,300 -1,740 Descending Oakland Center
02:39AM 37.2783 -121.4292 317° Northwest 315 362 10,700 -1,620 Descending Oakland Center
02:40AM 37.3367 -121.4953 318° Northwest 291 335 9,100 -1,560 Descending Oakland Center
02:41AM 37.3922 -121.5633 316° Northwest 284 327 7,600 -1,560 Descending Oakland Center
02:42AM 37.4411 -121.6522 305° West 269 310 6,000 -840 Descending Oakland Center
02:43AM 37.4767 -121.7300 300° West 260 299 6,000 -540 Level Oakland Center
02:44AM 37.5172 -121.8069 304° West 260 299 5,000 -540 Descending Oakland Center
02:45AM 37.5547 -121.8822 302° West 260 299 5,000 -180 Level Oakland Center
02:46AM 37.5906 -121.9550 302° West 252 290 4,700 -1,200 Descending Oakland Center
02:47AM 37.6267 -122.0119 309° West 220 253 2,700 -1,320 Descending Oakland Center
02:48AM 37.6567 -122.0575 310° West 192 221 2,100 -420 Descending Oakland Center
02:49AM 37.6844 -122.0992 310° West 170 196 1,900 -540 Descending Oakland Center
02:51AM 37.7167 -122.1500 309° West 129 148 900 -720 Descending Northern Cal TRACON
02:52AM 37.7167 -122.2000 270° West 127 146 200 -660 Descending Northern Cal TRACON
02:54AM 37.7167 -122.2167 270° West  Level FlightAware Approximate
03:01AM 37.7228 -122.2215 270° West  Level Estimated